sensor_id;sensor_type;location;lat;lon;timestamp;P1;durP1;ratioP1;P2;durP2;ratioP2
32026;SDS011;18543;50.848;4.596;2023-04-06T00:00:35;3.00;;;2.23;;
32026;SDS011;18543;50.848;4.596;2023-04-06T00:03:02;2.15;;;2.00;;
32026;SDS011;18543;50.848;4.596;2023-04-06T00:05:30;2.22;;;2.00;;
32026;SDS011;18543;50.848;4.596;2023-04-06T00:07:58;2.90;;;2.10;;
32026;SDS011;18543;50.848;4.596;2023-04-06T00:10:25;2.20;;;1.80;;
32026;SDS011;18543;50.848;4.596;2023-04-06T00:12:53;3.42;;;2.40;;
32026;SDS011;18543;50.848;4.596;2023-04-06T00:15:20;2.30;;;2.10;;
32026;SDS011;18543;50.848;4.596;2023-04-06T00:17:50;2.43;;;2.20;;
32026;SDS011;18543;50.848;4.596;2023-04-06T00:20:18;2.20;;;2.00;;
32026;SDS011;18543;50.848;4.596;2023-04-06T00:22:45;3.08;;;2.20;;
32026;SDS011;18543;50.848;4.596;2023-04-06T00:25:12;2.57;;;2.30;;
32026;SDS011;18543;50.848;4.596;2023-04-06T00:27:41;2.15;;;1.95;;
32026;SDS011;18543;50.848;4.596;2023-04-06T00:30:08;2.43;;;2.20;;
32026;SDS011;18543;50.848;4.596;2023-04-06T00:32:36;2.70;;;2.38;;
32026;SDS011;18543;50.848;4.596;2023-04-06T00:35:04;3.27;;;2.20;;
32026;SDS011;18543;50.848;4.596;2023-04-06T00:37:32;3.28;;;2.20;;
32026;SDS011;18543;50.848;4.596;2023-04-06T00:39:59;2.93;;;2.17;;
32026;SDS011;18543;50.848;4.596;2023-04-06T00:42:26;2.53;;;2.03;;
32026;SDS011;18543;50.848;4.596;2023-04-06T00:44:57;2.43;;;2.20;;
32026;SDS011;18543;50.848;4.596;2023-04-06T00:47:25;2.00;;;1.90;;
32026;SDS011;18543;50.848;4.596;2023-04-06T00:49:53;2.55;;;2.30;;
32026;SDS011;18543;50.848;4.596;2023-04-06T00:52:21;2.40;;;2.20;;
32026;SDS011;18543;50.848;4.596;2023-04-06T00:54:48;2.83;;;2.40;;
32026;SDS011;18543;50.848;4.596;2023-04-06T00:59:44;2.63;;;2.27;;
32026;SDS011;18543;50.848;4.596;2023-04-06T01:02:11;2.72;;;2.15;;
32026;SDS011;18543;50.848;4.596;2023-04-06T01:04:39;2.73;;;2.33;;
32026;SDS011;18543;50.848;4.596;2023-04-06T01:07:06;2.43;;;2.10;;
32026;SDS011;18543;50.848;4.596;2023-04-06T01:09:33;3.15;;;2.13;;
32026;SDS011;18543;50.848;4.596;2023-04-06T01:12:01;3.08;;;2.10;;
32026;SDS011;18543;50.848;4.596;2023-04-06T01:14:29;2.30;;;2.10;;
32026;SDS011;18543;50.848;4.596;2023-04-06T01:16:57;3.30;;;2.13;;
32026;SDS011;18543;50.848;4.596;2023-04-06T01:19:25;3.63;;;2.42;;
32026;SDS011;18543;50.848;4.596;2023-04-06T01:21:53;2.42;;;2.00;;
32026;SDS011;18543;50.848;4.596;2023-04-06T01:24:20;2.10;;;1.90;;
32026;SDS011;18543;50.848;4.596;2023-04-06T01:26:47;3.08;;;2.10;;
32026;SDS011;18543;50.848;4.596;2023-04-06T01:29:15;2.33;;;1.90;;
32026;SDS011;18543;50.848;4.596;2023-04-06T01:31:42;2.65;;;2.10;;
32026;SDS011;18543;50.848;4.596;2023-04-06T01:34:09;3.05;;;2.58;;
32026;SDS011;18543;50.848;4.596;2023-04-06T01:36:37;2.50;;;2.25;;
32026;SDS011;18543;50.848;4.596;2023-04-06T01:39:04;2.65;;;2.30;;
32026;SDS011;18543;50.848;4.596;2023-04-06T01:41:31;2.53;;;2.30;;
32026;SDS011;18543;50.848;4.596;2023-04-06T01:43:59;2.55;;;2.10;;
32026;SDS011;18543;50.848;4.596;2023-04-06T01:46:26;2.40;;;2.20;;
32026;SDS011;18543;50.848;4.596;2023-04-06T01:48:53;2.40;;;2.20;;
32026;SDS011;18543;50.848;4.596;2023-04-06T01:51:21;2.42;;;2.22;;
32026;SDS011;18543;50.848;4.596;2023-04-06T01:53:48;2.40;;;2.20;;
32026;SDS011;18543;50.848;4.596;2023-04-06T01:56:18;2.40;;;2.20;;
32026;SDS011;18543;50.848;4.596;2023-04-06T01:58:46;2.80;;;2.30;;
32026;SDS011;18543;50.848;4.596;2023-04-06T02:01:13;2.80;;;2.35;;
32026;SDS011;18543;50.848;4.596;2023-04-06T02:03:40;2.53;;;2.33;;
32026;SDS011;18543;50.848;4.596;2023-04-06T02:06:08;2.72;;;2.40;;
32026;SDS011;18543;50.848;4.596;2023-04-06T02:08:35;2.47;;;2.27;;
32026;SDS011;18543;50.848;4.596;2023-04-06T02:11:02;2.75;;;2.55;;
32026;SDS011;18543;50.848;4.596;2023-04-06T02:13:30;2.33;;;2.13;;
32026;SDS011;18543;50.848;4.596;2023-04-06T02:15:57;2.37;;;1.97;;
32026;SDS011;18543;50.848;4.596;2023-04-06T02:18:24;2.60;;;2.40;;
32026;SDS011;18543;50.848;4.596;2023-04-06T02:20:52;3.43;;;2.30;;
32026;SDS011;18543;50.848;4.596;2023-04-06T02:23:19;4.53;;;2.53;;
32026;SDS011;18543;50.848;4.596;2023-04-06T02:25:46;2.67;;;2.47;;
32026;SDS011;18543;50.848;4.596;2023-04-06T02:28:13;2.72;;;2.33;;
32026;SDS011;18543;50.848;4.596;2023-04-06T02:30:41;2.22;;;2.03;;
32026;SDS011;18543;50.848;4.596;2023-04-06T02:33:08;2.50;;;2.10;;
32026;SDS011;18543;50.848;4.596;2023-04-06T02:35:36;3.10;;;2.45;;
32026;SDS011;18543;50.848;4.596;2023-04-06T02:38:03;3.37;;;2.23;;
32026;SDS011;18543;50.848;4.596;2023-04-06T02:40:31;2.30;;;2.05;;
32026;SDS011;18543;50.848;4.596;2023-04-06T02:42:58;2.60;;;2.30;;
32026;SDS011;18543;50.848;4.596;2023-04-06T02:45:25;2.40;;;2.20;;
32026;SDS011;18543;50.848;4.596;2023-04-06T02:47:52;2.40;;;2.10;;
32026;SDS011;18543;50.848;4.596;2023-04-06T02:50:22;2.35;;;2.10;;
32026;SDS011;18543;50.848;4.596;2023-04-06T02:52:50;2.50;;;2.22;;
32026;SDS011;18543;50.848;4.596;2023-04-06T02:55:17;2.33;;;2.13;;
32026;SDS011;18543;50.848;4.596;2023-04-06T02:57:47;2.75;;;2.40;;
32026;SDS011;18543;50.848;4.596;2023-04-06T03:00:14;2.88;;;2.30;;
32026;SDS011;18543;50.848;4.596;2023-04-06T03:02:42;2.90;;;1.92;;
32026;SDS011;18543;50.848;4.596;2023-04-06T03:05:09;2.53;;;2.15;;
32026;SDS011;18543;50.848;4.596;2023-04-06T03:07:36;2.50;;;2.17;;
32026;SDS011;18543;50.848;4.596;2023-04-06T03:10:04;2.88;;;2.40;;
32026;SDS011;18543;50.848;4.596;2023-04-06T03:12:31;2.30;;;2.10;;
32026;SDS011;18543;50.848;4.596;2023-04-06T03:14:59;2.37;;;2.17;;
32026;SDS011;18543;50.848;4.596;2023-04-06T03:17:26;2.50;;;2.30;;
32026;SDS011;18543;50.848;4.596;2023-04-06T03:19:53;2.50;;;2.30;;
32026;SDS011;18543;50.848;4.596;2023-04-06T03:22:20;2.50;;;2.10;;
32026;SDS011;18543;50.848;4.596;2023-04-06T03:24:48;2.30;;;2.10;;
32026;SDS011;18543;50.848;4.596;2023-04-06T03:27:15;2.30;;;2.10;;
32026;SDS011;18543;50.848;4.596;2023-04-06T03:29:43;2.67;;;2.30;;
32026;SDS011;18543;50.848;4.596;2023-04-06T03:32:10;3.05;;;2.65;;
32026;SDS011;18543;50.848;4.596;2023-04-06T03:34:38;2.55;;;2.35;;
32026;SDS011;18543;50.848;4.596;2023-04-06T03:39:35;2.50;;;2.20;;
32026;SDS011;18543;50.848;4.596;2023-04-06T03:42:03;2.30;;;2.08;;
32026;SDS011;18543;50.848;4.596;2023-04-06T03:44:30;2.43;;;2.23;;
32026;SDS011;18543;50.848;4.596;2023-04-06T03:46:58;2.38;;;2.17;;
32026;SDS011;18543;50.848;4.596;2023-04-06T03:49:25;2.47;;;2.15;;
32026;SDS011;18543;50.848;4.596;2023-04-06T03:51:53;2.55;;;2.35;;
32026;SDS011;18543;50.848;4.596;2023-04-06T03:54:21;2.43;;;2.23;;
32026;SDS011;18543;50.848;4.596;2023-04-06T03:56:48;2.67;;;2.22;;
32026;SDS011;18543;50.848;4.596;2023-04-06T03:59:16;3.20;;;2.37;;
32026;SDS011;18543;50.848;4.596;2023-04-06T04:01:43;3.03;;;2.20;;
32026;SDS011;18543;50.848;4.596;2023-04-06T04:04:11;2.40;;;2.20;;
32026;SDS011;18543;50.848;4.596;2023-04-06T04:06:38;3.78;;;2.63;;
32026;SDS011;18543;50.848;4.596;2023-04-06T04:09:05;2.33;;;2.10;;
32026;SDS011;18543;50.848;4.596;2023-04-06T04:11:33;2.63;;;2.30;;
32026;SDS011;18543;50.848;4.596;2023-04-06T04:14:00;2.10;;;2.00;;
32026;SDS011;18543;50.848;4.596;2023-04-06T04:16:27;2.50;;;2.30;;
32026;SDS011;18543;50.848;4.596;2023-04-06T04:18:54;2.03;;;1.90;;
32026;SDS011;18543;50.848;4.596;2023-04-06T04:21:24;2.53;;;2.33;;
32026;SDS011;18543;50.848;4.596;2023-04-06T04:23:52;2.50;;;2.30;;
32026;SDS011;18543;50.848;4.596;2023-04-06T04:26:19;2.40;;;2.20;;
32026;SDS011;18543;50.848;4.596;2023-04-06T04:28:46;2.40;;;2.10;;
32026;SDS011;18543;50.848;4.596;2023-04-06T04:31:14;2.58;;;2.08;;
32026;SDS011;18543;50.848;4.596;2023-04-06T04:33:44;2.85;;;2.50;;
32026;SDS011;18543;50.848;4.596;2023-04-06T04:36:11;2.50;;;2.30;;
32026;SDS011;18543;50.848;4.596;2023-04-06T04:38:38;2.40;;;2.15;;
32026;SDS011;18543;50.848;4.596;2023-04-06T04:41:06;2.67;;;2.47;;
32026;SDS011;18543;50.848;4.596;2023-04-06T04:43:33;2.80;;;2.55;;
32026;SDS011;18543;50.848;4.596;2023-04-06T04:46:00;2.58;;;2.38;;
32026;SDS011;18543;50.848;4.596;2023-04-06T04:48:27;2.43;;;2.20;;
32026;SDS011;18543;50.848;4.596;2023-04-06T04:50:55;2.65;;;2.30;;
32026;SDS011;18543;50.848;4.596;2023-04-06T04:53:25;2.63;;;2.40;;
32026;SDS011;18543;50.848;4.596;2023-04-06T04:55:52;2.63;;;2.13;;
32026;SDS011;18543;50.848;4.596;2023-04-06T04:58:19;2.85;;;2.42;;
32026;SDS011;18543;50.848;4.596;2023-04-06T05:00:46;3.10;;;2.57;;
32026;SDS011;18543;50.848;4.596;2023-04-06T05:03:16;2.65;;;2.42;;
32026;SDS011;18543;50.848;4.596;2023-04-06T05:05:45;2.50;;;2.30;;
32026;SDS011;18543;50.848;4.596;2023-04-06T05:08:12;2.95;;;2.17;;
32026;SDS011;18543;50.848;4.596;2023-04-06T05:10:42;2.60;;;2.38;;
32026;SDS011;18543;50.848;4.596;2023-04-06T05:13:10;2.35;;;2.15;;
32026;SDS011;18543;50.848;4.596;2023-04-06T05:15:40;2.07;;;1.87;;
32026;SDS011;18543;50.848;4.596;2023-04-06T05:18:08;2.33;;;2.13;;
32026;SDS011;18543;50.848;4.596;2023-04-06T05:20:36;2.78;;;2.22;;
32026;SDS011;18543;50.848;4.596;2023-04-06T05:23:03;3.13;;;2.40;;
32026;SDS011;18543;50.848;4.596;2023-04-06T05:25:30;2.75;;;2.40;;
32026;SDS011;18543;50.848;4.596;2023-04-06T05:30:26;2.50;;;2.15;;
32026;SDS011;18543;50.848;4.596;2023-04-06T05:32:53;2.53;;;2.33;;
32026;SDS011;18543;50.848;4.596;2023-04-06T05:35:21;3.22;;;2.10;;
32026;SDS011;18543;50.848;4.596;2023-04-06T05:37:48;2.90;;;2.33;;
32026;SDS011;18543;50.848;4.596;2023-04-06T05:40:16;2.42;;;2.20;;
32026;SDS011;18543;50.848;4.596;2023-04-06T05:42:43;2.17;;;1.90;;
32026;SDS011;18543;50.848;4.596;2023-04-06T05:45:10;2.37;;;2.17;;
32026;SDS011;18543;50.848;4.596;2023-04-06T05:47:43;2.55;;;2.30;;
32026;SDS011;18543;50.848;4.596;2023-04-06T05:50:11;2.20;;;2.00;;
32026;SDS011;18543;50.848;4.596;2023-04-06T05:52:38;2.38;;;2.17;;
32026;SDS011;18543;50.848;4.596;2023-04-06T05:55:09;2.80;;;2.50;;
32026;SDS011;18543;50.848;4.596;2023-04-06T05:57:39;2.50;;;2.30;;
32026;SDS011;18543;50.848;4.596;2023-04-06T06:00:08;2.35;;;2.15;;
32026;SDS011;18543;50.848;4.596;2023-04-06T06:02:36;2.50;;;2.30;;
32026;SDS011;18543;50.848;4.596;2023-04-06T06:05:04;2.28;;;2.08;;
32026;SDS011;18543;50.848;4.596;2023-04-06T06:07:31;2.05;;;1.85;;
32026;SDS011;18543;50.848;4.596;2023-04-06T06:09:59;2.30;;;2.10;;
32026;SDS011;18543;50.848;4.596;2023-04-06T06:12:26;2.90;;;2.10;;
32026;SDS011;18543;50.848;4.596;2023-04-06T06:14:54;2.40;;;2.20;;
32026;SDS011;18543;50.848;4.596;2023-04-06T06:17:21;2.38;;;2.10;;
32026;SDS011;18543;50.848;4.596;2023-04-06T06:19:49;2.67;;;1.92;;
32026;SDS011;18543;50.848;4.596;2023-04-06T06:22:16;3.03;;;2.00;;
32026;SDS011;18543;50.848;4.596;2023-04-06T06:24:43;2.30;;;2.10;;
32026;SDS011;18543;50.848;4.596;2023-04-06T06:27:11;2.33;;;2.13;;
32026;SDS011;18543;50.848;4.596;2023-04-06T06:29:38;3.00;;;2.13;;
32026;SDS011;18543;50.848;4.596;2023-04-06T06:32:05;2.50;;;2.30;;
32026;SDS011;18543;50.848;4.596;2023-04-06T06:34:35;2.22;;;2.03;;
32026;SDS011;18543;50.848;4.596;2023-04-06T06:37:02;2.90;;;1.97;;
32026;SDS011;18543;50.848;4.596;2023-04-06T06:39:29;1.90;;;1.70;;
32026;SDS011;18543;50.848;4.596;2023-04-06T06:41:59;1.95;;;1.75;;
32026;SDS011;18543;50.848;4.596;2023-04-06T06:44:28;2.50;;;2.00;;
32026;SDS011;18543;50.848;4.596;2023-04-06T06:46:55;2.53;;;1.88;;
32026;SDS011;18543;50.848;4.596;2023-04-06T06:49:23;3.05;;;2.00;;
32026;SDS011;18543;50.848;4.596;2023-04-06T06:51:50;2.30;;;2.10;;
32026;SDS011;18543;50.848;4.596;2023-04-06T06:54:17;2.35;;;2.13;;
32026;SDS011;18543;50.848;4.596;2023-04-06T06:56:45;2.00;;;1.77;;
32026;SDS011;18543;50.848;4.596;2023-04-06T06:59:12;2.00;;;1.90;;
32026;SDS011;18543;50.848;4.596;2023-04-06T07:01:42;2.20;;;2.00;;
32026;SDS011;18543;50.848;4.596;2023-04-06T07:04:09;1.92;;;1.83;;
32026;SDS011;18543;50.848;4.596;2023-04-06T07:06:37;2.10;;;1.90;;
32026;SDS011;18543;50.848;4.596;2023-04-06T07:09:04;2.57;;;2.27;;
32026;SDS011;18543;50.848;4.596;2023-04-06T07:11:31;2.23;;;2.03;;
32026;SDS011;18543;50.848;4.596;2023-04-06T07:13:58;2.07;;;1.90;;
32026;SDS011;18543;50.848;4.596;2023-04-06T07:16:26;3.23;;;2.10;;
32026;SDS011;18543;50.848;4.596;2023-04-06T07:18:53;2.20;;;2.00;;
32026;SDS011;18543;50.848;4.596;2023-04-06T07:21:21;1.95;;;1.77;;
32026;SDS011;18543;50.848;4.596;2023-04-06T07:23:49;2.03;;;1.80;;
32026;SDS011;18543;50.848;4.596;2023-04-06T07:26:16;1.90;;;1.70;;
32026;SDS011;18543;50.848;4.596;2023-04-06T07:28:44;2.27;;;2.07;;
32026;SDS011;18543;50.848;4.596;2023-04-06T07:31:11;2.17;;;1.98;;
32026;SDS011;18543;50.848;4.596;2023-04-06T07:33:38;2.70;;;2.03;;
32026;SDS011;18543;50.848;4.596;2023-04-06T07:36:06;2.25;;;2.05;;
32026;SDS011;18543;50.848;4.596;2023-04-06T07:38:33;2.28;;;2.08;;
32026;SDS011;18543;50.848;4.596;2023-04-06T07:41:00;1.90;;;1.80;;
32026;SDS011;18543;50.848;4.596;2023-04-06T07:43:31;2.28;;;1.83;;
32026;SDS011;18543;50.848;4.596;2023-04-06T07:45:58;1.90;;;1.80;;
32026;SDS011;18543;50.848;4.596;2023-04-06T07:48:26;2.10;;;1.90;;
32026;SDS011;18543;50.848;4.596;2023-04-06T07:51:00;1.93;;;1.83;;
32026;SDS011;18543;50.848;4.596;2023-04-06T07:53:28;2.03;;;1.83;;
32026;SDS011;18543;50.848;4.596;2023-04-06T07:55:55;2.00;;;1.80;;
32026;SDS011;18543;50.848;4.596;2023-04-06T07:58:23;2.47;;;2.05;;
32026;SDS011;18543;50.848;4.596;2023-04-06T08:00:50;2.43;;;2.10;;
32026;SDS011;18543;50.848;4.596;2023-04-06T08:03:17;1.92;;;1.80;;
32026;SDS011;18543;50.848;4.596;2023-04-06T08:05:47;1.73;;;1.63;;
32026;SDS011;18543;50.848;4.596;2023-04-06T08:08:15;2.45;;;2.22;;
32026;SDS011;18543;50.848;4.596;2023-04-06T08:10:42;2.20;;;2.00;;
32026;SDS011;18543;50.848;4.596;2023-04-06T08:13:12;1.60;;;1.50;;
32026;SDS011;18543;50.848;4.596;2023-04-06T08:15:39;2.20;;;2.00;;
32026;SDS011;18543;50.848;4.596;2023-04-06T08:18:06;2.43;;;1.87;;
32026;SDS011;18543;50.848;4.596;2023-04-06T08:20:34;2.15;;;1.83;;
32026;SDS011;18543;50.848;4.596;2023-04-06T08:23:02;1.80;;;1.70;;
32026;SDS011;18543;50.848;4.596;2023-04-06T08:25:29;2.20;;;1.77;;
32026;SDS011;18543;50.848;4.596;2023-04-06T08:27:58;1.90;;;1.60;;
32026;SDS011;18543;50.848;4.596;2023-04-06T08:30:26;1.75;;;1.65;;
32026;SDS011;18543;50.848;4.596;2023-04-06T08:32:53;2.07;;;1.70;;
32026;SDS011;18543;50.848;4.596;2023-04-06T08:35:20;2.03;;;1.53;;
32026;SDS011;18543;50.848;4.596;2023-04-06T08:37:47;2.47;;;1.60;;
32026;SDS011;18543;50.848;4.596;2023-04-06T08:40:15;1.87;;;1.77;;
32026;SDS011;18543;50.848;4.596;2023-04-06T08:42:44;2.47;;;1.77;;
32026;SDS011;18543;50.848;4.596;2023-04-06T08:45:11;2.10;;;1.90;;
32026;SDS011;18543;50.848;4.596;2023-04-06T08:47:41;2.33;;;1.88;;
32026;SDS011;18543;50.848;4.596;2023-04-06T08:50:09;2.95;;;1.70;;
32026;SDS011;18543;50.848;4.596;2023-04-06T08:52:40;2.00;;;1.70;;
32026;SDS011;18543;50.848;4.596;2023-04-06T08:55:08;1.95;;;1.58;;
32026;SDS011;18543;50.848;4.596;2023-04-06T08:57:36;2.30;;;1.50;;
32026;SDS011;18543;50.848;4.596;2023-04-06T09:00:03;5.25;;;1.83;;
32026;SDS011;18543;50.848;4.596;2023-04-06T09:02:31;2.67;;;1.77;;
32026;SDS011;18543;50.848;4.596;2023-04-06T09:05:01;2.47;;;1.73;;
32026;SDS011;18543;50.848;4.596;2023-04-06T09:07:29;2.03;;;1.60;;
32026;SDS011;18543;50.848;4.596;2023-04-06T09:12:27;2.10;;;1.53;;
32026;SDS011;18543;50.848;4.596;2023-04-06T09:14:55;2.97;;;1.77;;
32026;SDS011;18543;50.848;4.596;2023-04-06T09:17:23;2.47;;;1.80;;
32026;SDS011;18543;50.848;4.596;2023-04-06T09:19:51;2.15;;;1.73;;
32026;SDS011;18543;50.848;4.596;2023-04-06T09:22:18;1.95;;;1.67;;
32026;SDS011;18543;50.848;4.596;2023-04-06T09:24:52;2.17;;;1.77;;
32026;SDS011;18543;50.848;4.596;2023-04-06T09:27:29;2.92;;;1.65;;
32026;SDS011;18543;50.848;4.596;2023-04-06T09:32:31;1.90;;;1.67;;
32026;SDS011;18543;50.848;4.596;2023-04-06T09:35:05;3.88;;;1.70;;
32026;SDS011;18543;50.848;4.596;2023-04-06T09:37:33;1.60;;;1.50;;
32026;SDS011;18543;50.848;4.596;2023-04-06T09:40:04;3.78;;;1.67;;
32026;SDS011;18543;50.848;4.596;2023-04-06T09:42:32;1.85;;;1.60;;
32026;SDS011;18543;50.848;4.596;2023-04-06T09:45:01;1.73;;;1.60;;
32026;SDS011;18543;50.848;4.596;2023-04-06T09:49:59;6.55;;;1.73;;
32026;SDS011;18543;50.848;4.596;2023-04-06T09:52:36;2.38;;;1.60;;
32026;SDS011;18543;50.848;4.596;2023-04-06T09:55:04;3.17;;;1.50;;
32026;SDS011;18543;50.848;4.596;2023-04-06T09:57:41;3.55;;;1.48;;
32026;SDS011;18543;50.848;4.596;2023-04-06T10:00:10;2.92;;;1.67;;
32026;SDS011;18543;50.848;4.596;2023-04-06T10:03:00;3.80;;;1.80;;
32026;SDS011;18543;50.848;4.596;2023-04-06T10:08:10;3.28;;;1.92;;
32026;SDS011;18543;50.848;4.596;2023-04-06T10:10:38;5.53;;;2.03;;
32026;SDS011;18543;50.848;4.596;2023-04-06T10:13:07;4.17;;;1.80;;
32026;SDS011;18543;50.848;4.596;2023-04-06T10:15:37;3.63;;;2.05;;
32026;SDS011;18543;50.848;4.596;2023-04-06T10:18:05;4.35;;;2.00;;
32026;SDS011;18543;50.848;4.596;2023-04-06T10:23:21;6.90;;;2.10;;
32026;SDS011;18543;50.848;4.596;2023-04-06T10:25:54;6.60;;;2.00;;
32026;SDS011;18543;50.848;4.596;2023-04-06T10:28:21;8.38;;;2.20;;
32026;SDS011;18543;50.848;4.596;2023-04-06T10:30:49;11.52;;;3.08;;
32026;SDS011;18543;50.848;4.596;2023-04-06T10:33:17;7.88;;;2.75;;
32026;SDS011;18543;50.848;4.596;2023-04-06T10:35:45;14.00;;;2.97;;
32026;SDS011;18543;50.848;4.596;2023-04-06T10:38:12;11.82;;;3.22;;
32026;SDS011;18543;50.848;4.596;2023-04-06T10:40:41;12.85;;;3.15;;
32026;SDS011;18543;50.848;4.596;2023-04-06T10:43:09;11.02;;;2.75;;
32026;SDS011;18543;50.848;4.596;2023-04-06T10:45:37;14.40;;;3.35;;
32026;SDS011;18543;50.848;4.596;2023-04-06T10:48:15;10.13;;;3.58;;
32026;SDS011;18543;50.848;4.596;2023-04-06T10:50:49;9.35;;;3.20;;
32026;SDS011;18543;50.848;4.596;2023-04-06T10:53:24;12.95;;;3.40;;
32026;SDS011;18543;50.848;4.596;2023-04-06T10:55:54;16.00;;;3.55;;
32026;SDS011;18543;50.848;4.596;2023-04-06T10:58:24;14.38;;;4.28;;
32026;SDS011;18543;50.848;4.596;2023-04-06T11:00:52;18.00;;;3.90;;
32026;SDS011;18543;50.848;4.596;2023-04-06T11:03:20;12.15;;;3.80;;
32026;SDS011;18543;50.848;4.596;2023-04-06T11:05:48;13.93;;;3.60;;
32026;SDS011;18543;50.848;4.596;2023-04-06T11:08:22;15.05;;;3.50;;
32026;SDS011;18543;50.848;4.596;2023-04-06T11:10:50;14.82;;;3.85;;
32026;SDS011;18543;50.848;4.596;2023-04-06T11:13:17;18.37;;;3.73;;
32026;SDS011;18543;50.848;4.596;2023-04-06T11:15:44;9.82;;;3.50;;
32026;SDS011;18543;50.848;4.596;2023-04-06T11:18:12;13.20;;;3.25;;
32026;SDS011;18543;50.848;4.596;2023-04-06T11:20:40;12.77;;;3.40;;
32026;SDS011;18543;50.848;4.596;2023-04-06T11:23:07;15.82;;;3.42;;
32026;SDS011;18543;50.848;4.596;2023-04-06T11:25:34;11.47;;;4.07;;
32026;SDS011;18543;50.848;4.596;2023-04-06T11:28:02;13.07;;;3.60;;
32026;SDS011;18543;50.848;4.596;2023-04-06T11:30:29;12.82;;;3.72;;
32026;SDS011;18543;50.848;4.596;2023-04-06T11:33:00;16.77;;;3.70;;
32026;SDS011;18543;50.848;4.596;2023-04-06T11:35:28;9.25;;;3.13;;
32026;SDS011;18543;50.848;4.596;2023-04-06T11:37:59;10.38;;;3.22;;
32026;SDS011;18543;50.848;4.596;2023-04-06T11:40:29;12.98;;;3.63;;
32026;SDS011;18543;50.848;4.596;2023-04-06T11:42:57;11.10;;;3.63;;
32026;SDS011;18543;50.848;4.596;2023-04-06T11:45:25;8.90;;;3.27;;
32026;SDS011;18543;50.848;4.596;2023-04-06T11:47:55;9.30;;;3.20;;
32026;SDS011;18543;50.848;4.596;2023-04-06T11:50:24;11.48;;;3.42;;
32026;SDS011;18543;50.848;4.596;2023-04-06T11:52:58;8.63;;;3.17;;
32026;SDS011;18543;50.848;4.596;2023-04-06T11:55:29;10.23;;;3.35;;
32026;SDS011;18543;50.848;4.596;2023-04-06T11:58:03;10.38;;;3.58;;
32026;SDS011;18543;50.848;4.596;2023-04-06T12:00:31;6.10;;;3.00;;
32026;SDS011;18543;50.848;4.596;2023-04-06T12:03:00;9.55;;;3.40;;
32026;SDS011;18543;50.848;4.596;2023-04-06T12:05:28;11.87;;;2.87;;
32026;SDS011;18543;50.848;4.596;2023-04-06T12:07:55;10.70;;;3.05;;
32026;SDS011;18543;50.848;4.596;2023-04-06T12:10:28;6.93;;;3.15;;
32026;SDS011;18543;50.848;4.596;2023-04-06T12:12:55;5.13;;;3.00;;
32026;SDS011;18543;50.848;4.596;2023-04-06T12:15:25;8.68;;;3.13;;
32026;SDS011;18543;50.848;4.596;2023-04-06T12:17:52;9.20;;;3.05;;
32026;SDS011;18543;50.848;4.596;2023-04-06T12:20:20;7.50;;;3.05;;
32026;SDS011;18543;50.848;4.596;2023-04-06T12:22:52;5.10;;;2.80;;
32026;SDS011;18543;50.848;4.596;2023-04-06T12:25:20;8.50;;;2.90;;
32026;SDS011;18543;50.848;4.596;2023-04-06T12:27:47;10.13;;;3.10;;
32026;SDS011;18543;50.848;4.596;2023-04-06T12:30:14;6.43;;;2.80;;
32026;SDS011;18543;50.848;4.596;2023-04-06T12:32:42;6.00;;;2.80;;
32026;SDS011;18543;50.848;4.596;2023-04-06T12:35:09;7.13;;;3.10;;
32026;SDS011;18543;50.848;4.596;2023-04-06T12:37:37;9.10;;;3.00;;
32026;SDS011;18543;50.848;4.596;2023-04-06T12:40:06;9.18;;;3.35;;
32026;SDS011;18543;50.848;4.596;2023-04-06T12:42:33;8.48;;;2.80;;
32026;SDS011;18543;50.848;4.596;2023-04-06T12:45:01;8.00;;;3.07;;
32026;SDS011;18543;50.848;4.596;2023-04-06T12:47:28;8.27;;;2.57;;
32026;SDS011;18543;50.848;4.596;2023-04-06T12:49:55;7.63;;;3.10;;
32026;SDS011;18543;50.848;4.596;2023-04-06T12:52:23;6.10;;;2.80;;
32026;SDS011;18543;50.848;4.596;2023-04-06T12:54:50;7.32;;;3.00;;
32026;SDS011;18543;50.848;4.596;2023-04-06T12:57:17;10.43;;;3.30;;
32026;SDS011;18543;50.848;4.596;2023-04-06T12:59:44;8.90;;;3.00;;
32026;SDS011;18543;50.848;4.596;2023-04-06T13:02:12;7.60;;;2.75;;
32026;SDS011;18543;50.848;4.596;2023-04-06T13:04:40;6.40;;;2.50;;
32026;SDS011;18543;50.848;4.596;2023-04-06T13:07:07;5.18;;;2.60;;
32026;SDS011;18543;50.848;4.596;2023-04-06T13:09:35;5.28;;;2.72;;
32026;SDS011;18543;50.848;4.596;2023-04-06T13:12:02;5.95;;;2.33;;
32026;SDS011;18543;50.848;4.596;2023-04-06T13:14:30;7.15;;;2.90;;
32026;SDS011;18543;50.848;4.596;2023-04-06T13:16:58;6.35;;;2.97;;
32026;SDS011;18543;50.848;4.596;2023-04-06T13:19:25;5.88;;;2.70;;
32026;SDS011;18543;50.848;4.596;2023-04-06T13:21:53;6.82;;;2.40;;
32026;SDS011;18543;50.848;4.596;2023-04-06T13:24:20;6.03;;;2.57;;
32026;SDS011;18543;50.848;4.596;2023-04-06T13:26:48;6.78;;;2.55;;
32026;SDS011;18543;50.848;4.596;2023-04-06T13:29:15;5.57;;;2.75;;
32026;SDS011;18543;50.848;4.596;2023-04-06T13:31:42;9.53;;;3.27;;
32026;SDS011;18543;50.848;4.596;2023-04-06T13:34:10;6.72;;;2.90;;
32026;SDS011;18543;50.848;4.596;2023-04-06T13:36:37;5.07;;;2.70;;
32026;SDS011;18543;50.848;4.596;2023-04-06T13:39:07;4.60;;;2.65;;
32026;SDS011;18543;50.848;4.596;2023-04-06T13:41:34;4.85;;;2.80;;
32026;SDS011;18543;50.848;4.596;2023-04-06T13:44:02;9.47;;;2.80;;
32026;SDS011;18543;50.848;4.596;2023-04-06T13:46:29;10.33;;;3.30;;
32026;SDS011;18543;50.848;4.596;2023-04-06T13:48:56;8.85;;;3.15;;
32026;SDS011;18543;50.848;4.596;2023-04-06T13:51:23;17.93;;;3.00;;
32026;SDS011;18543;50.848;4.596;2023-04-06T13:53:52;7.15;;;3.05;;
32026;SDS011;18543;50.848;4.596;2023-04-06T13:56:19;6.53;;;2.63;;
32026;SDS011;18543;50.848;4.596;2023-04-06T13:58:47;9.57;;;3.70;;
32026;SDS011;18543;50.848;4.596;2023-04-06T14:01:14;15.98;;;3.25;;
32026;SDS011;18543;50.848;4.596;2023-04-06T14:03:42;8.13;;;2.95;;
32026;SDS011;18543;50.848;4.596;2023-04-06T14:06:14;9.52;;;3.30;;
32026;SDS011;18543;50.848;4.596;2023-04-06T14:08:44;9.88;;;2.97;;
32026;SDS011;18543;50.848;4.596;2023-04-06T14:11:13;7.30;;;3.28;;
32026;SDS011;18543;50.848;4.596;2023-04-06T14:13:40;10.40;;;2.95;;
32026;SDS011;18543;50.848;4.596;2023-04-06T14:16:08;9.88;;;3.10;;
32026;SDS011;18543;50.848;4.596;2023-04-06T14:18:36;7.07;;;3.20;;
32026;SDS011;18543;50.848;4.596;2023-04-06T14:21:03;7.38;;;3.10;;
32026;SDS011;18543;50.848;4.596;2023-04-06T14:23:31;6.45;;;3.35;;
32026;SDS011;18543;50.848;4.596;2023-04-06T14:26:05;6.07;;;3.10;;
32026;SDS011;18543;50.848;4.596;2023-04-06T14:28:33;8.15;;;3.28;;
32026;SDS011;18543;50.848;4.596;2023-04-06T14:31:01;5.80;;;2.95;;
32026;SDS011;18543;50.848;4.596;2023-04-06T14:33:31;6.85;;;2.80;;
32026;SDS011;18543;50.848;4.596;2023-04-06T14:35:58;5.82;;;2.95;;
32026;SDS011;18543;50.848;4.596;2023-04-06T14:38:26;5.60;;;2.50;;
32026;SDS011;18543;50.848;4.596;2023-04-06T14:40:53;4.53;;;2.83;;
32026;SDS011;18543;50.848;4.596;2023-04-06T14:43:22;8.18;;;2.85;;
32026;SDS011;18543;50.848;4.596;2023-04-06T14:45:49;7.35;;;2.83;;
32026;SDS011;18543;50.848;4.596;2023-04-06T14:48:16;6.13;;;2.87;;
32026;SDS011;18543;50.848;4.596;2023-04-06T14:53:39;10.77;;;2.95;;
32026;SDS011;18543;50.848;4.596;2023-04-06T14:56:06;5.03;;;2.90;;
32026;SDS011;18543;50.848;4.596;2023-04-06T14:58:33;9.93;;;2.97;;
32026;SDS011;18543;50.848;4.596;2023-04-06T15:01:01;10.60;;;2.97;;
32026;SDS011;18543;50.848;4.596;2023-04-06T15:03:29;4.43;;;2.83;;
32026;SDS011;18543;50.848;4.596;2023-04-06T15:05:57;8.23;;;3.10;;
32026;SDS011;18543;50.848;4.596;2023-04-06T15:08:24;6.80;;;3.42;;
32026;SDS011;18543;50.848;4.596;2023-04-06T15:10:52;5.13;;;3.70;;
32026;SDS011;18543;50.848;4.596;2023-04-06T15:13:22;6.30;;;3.42;;